Time;durP1;ratioP1;P1;durP2;ratioP2;P2;SDS_P1;SDS_P2;PMS_P1;PMS_P2;Temp;Humidity;BMP_temperature;BMP_pressure;BME280_temperature;BME280_humidity;BME280_pressure;Samples;Min_cycle;Max_cycle;Signal;HPM_P1;HPM_P2
2022/10/22 00:00:54;;;;;;;0.82;0.22;;;18.30;70.10;;;;;;2345333;53;20969;-78
2022/10/22 00:03:21;;;;;;;1.20;0.20;;;18.30;70.10;;;;;;2378978;53;20931;-78
2022/10/22 00:05:48;;;;;;;0.85;0.30;;;18.30;70.80;;;;;;2338820;53;20962;-81
2022/10/22 00:08:17;;;;;;;1.23;0.20;;;18.30;70.10;;;;;;2338768;53;21252;-79
2022/10/22 00:10:45;;;;;;;0.25;0.10;;;18.30;70.10;;;;;;2432846;53;20954;-78
2022/10/22 00:13:11;;;;;;;1.23;0.20;;;18.30;70.10;;;;;;2341673;53;20939;-81
2022/10/22 00:15:38;;;;;;;0.20;0.10;;;18.20;70.00;;;;;;2395225;53;21001;-80
2022/10/22 00:18:04;;;;;;;0.45;0.10;;;18.20;70.00;;;;;;2355090;53;20950;-77
2022/10/22 00:20:31;;;;;;;0.95;0.20;;;18.20;70.00;;;;;;2586147;53;21009;-78
2022/10/22 00:22:57;;;;;;;0.52;0.20;;;18.20;70.00;;;;;;2338730;53;20997;-78
2022/10/22 00:25:23;;;;;;;1.30;0.30;;;18.20;70.00;;;;;;2418827;53;21680;-78
2022/10/22 00:27:50;;;;;;;1.05;0.20;;;18.20;70.10;;;;;;2341050;53;21428;-77
2022/10/22 00:30:20;;;;;;;1.17;0.40;;;18.20;70.10;;;;;;2338612;53;20905;-79
2022/10/22 00:32:49;;;;;;;1.33;0.28;;;18.20;70.10;;;;;;2342327;53;21001;-77
2022/10/22 00:35:16;;;;;;;0.52;0.22;;;18.20;70.10;;;;;;2403847;53;21353;-78
2022/10/22 00:37:43;;;;;;;0.70;0.20;;;18.20;70.10;;;;;;2351388;53;21518;-77
2022/10/22 00:40:10;;;;;;;0.60;0.20;;;18.20;70.10;;;;;;2356828;53;21033;-77
2022/10/22 00:42:36;;;;;;;0.75;0.20;;;18.20;70.10;;;;;;2400586;53;21006;-76
2022/10/22 00:45:16;;;;;;;0.55;0.25;;;18.20;70.10;;;;;;2519955;53;20947;-78
2022/10/22 00:48:27;;;;;;;0.25;0.10;;;18.20;70.10;;;;;;2337822;53;20982;-77
2022/10/22 00:50:58;;;;;;;0.25;0.20;;;18.20;70.10;;;;;;2341676;54;20954;-80
2022/10/22 00:54:25;;;;;;;0.35;0.17;;;18.20;70.00;;;;;;2339760;54;20997;-78
2022/10/22 00:56:51;;;;;;;1.58;0.28;;;18.20;70.00;;;;;;2584828;53;21339;-77
2022/10/22 00:59:18;;;;;;;1.10;0.52;;;18.20;70.00;;;;;;2339894;54;20923;-78
2022/10/22 01:01:45;;;;;;;1.33;0.15;;;18.20;70.10;;;;;;2339653;54;21343;-77
2022/10/22 01:04:13;;;;;;;0.77;0.20;;;18.20;70.10;;;;;;2406916;53;21010;-80
2022/10/22 01:06:40;;;;;;;0.85;0.20;;;18.10;69.90;;;;;;2345335;53;20914;-76
2022/10/22 01:11:10;;;;;;;0.28;0.20;;;18.20;70.00;;;;;;2391757;53;20914;-80
2022/10/22 01:20:52;;;;;;;0.45;0.20;;;18.20;70.70;;;;;;2430117;53;20939;-77
2022/10/22 01:28:42;;;;;;;0.52;0.20;;;18.20;69.80;;;;;;2358849;53;20934;-78
2022/10/22 01:31:09;;;;;;;1.87;0.47;;;18.20;69.80;;;;;;2337817;53;20918;-78
2022/10/22 01:33:35;;;;;;;1.77;0.35;;;18.10;69.80;;;;;;2377244;53;21436;-78
2022/10/22 01:36:02;;;;;;;1.02;0.32;;;18.10;69.90;;;;;;2537210;53;21001;-78
2022/10/22 01:38:29;;;;;;;1.05;0.37;;;18.10;70.10;;;;;;2390002;53;21737;-78
2022/10/22 01:40:55;;;;;;;1.02;0.40;;;18.10;70.20;;;;;;2339673;54;20950;-78
2022/10/22 01:43:22;;;;;;;0.98;0.40;;;18.10;70.30;;;;;;2410880;53;21879;-80
2022/10/22 01:45:50;;;;;;;2.08;0.37;;;18.10;70.40;;;;;;2363148;53;20918;-80
2022/10/22 01:56:11;;;;;;;1.02;0.40;;;18.00;70.40;;;;;;2361317;53;20926;-78
2022/10/22 02:00:29;;;;;;;0.45;0.20;;;18.10;70.50;;;;;;2584252;53;21018;-78
2022/10/22 02:03:05;;;;;;;0.43;0.20;;;18.10;70.20;;;;;;2337326;53;20926;-77
2022/10/22 02:05:46;;;;;;;0.90;0.20;;;18.10;70.20;;;;;;2579603;53;21632;-79
2022/10/22 02:08:18;;;;;;;0.20;0.13;;;18.10;70.30;;;;;;2425298;53;20968;-78
2022/10/22 02:10:45;;;;;;;0.50;0.20;;;18.10;70.40;;;;;;2477119;53;20985;-79
2022/10/22 02:13:20;;;;;;;0.62;0.10;;;18.00;70.30;;;;;;2378820;53;20970;-78
2022/10/22 02:15:48;;;;;;;0.17;0.10;;;18.10;70.40;;;;;;2392264;53;21001;-78
2022/10/22 02:18:15;;;;;;;0.30;0.20;;;18.10;70.30;;;;;;2343287;53;21002;-77
2022/10/22 02:20:41;;;;;;;0.47;0.20;;;18.10;70.30;;;;;;2408195;53;21450;-77
2022/10/22 02:23:08;;;;;;;0.08;0.08;;;18.00;70.30;;;;;;2397157;53;20963;-77
2022/10/22 02:25:37;;;;;;;0.85;0.15;;;18.10;70.50;;;;;;2432765;53;21339;-77
2022/10/22 02:34:52;;;;;;;0.40;0.10;;;18.10;70.50;;;;;;2348412;53;21004;-78
2022/10/22 02:37:19;;;;;;;0.15;0.05;;;18.10;70.10;;;;;;2425980;53;20922;-80
2022/10/22 02:39:45;;;;;;;0.05;0.05;;;18.00;70.00;;;;;;2339643;54;21021;-77
2022/10/22 02:42:13;;;;;;;0.30;0.20;;;18.00;70.10;;;;;;2346158;53;21029;-77
2022/10/22 02:44:39;;;;;;;0.10;0.10;;;18.00;70.20;;;;;;2543882;53;20942;-77
2022/10/22 02:47:10;;;;;;;0.98;0.20;;;18.00;70.30;;;;;;2339632;54;20952;-77
2022/10/22 02:49:36;;;;;;;0.20;0.10;;;18.00;70.30;;;;;;2339137;54;20914;-79
2022/10/22 02:52:04;;;;;;;0.90;0.52;;;18.00;70.30;;;;;;2362879;53;20950;-77
2022/10/22 02:54:30;;;;;;;0.15;0.10;;;17.90;70.30;;;;;;2338847;53;20957;-77
2022/10/22 02:57:00;;;;;;;1.02;0.20;;;18.00;70.40;;;;;;2338016;53;21303;-77
2022/10/22 02:59:26;;;;;;;0.00;0.00;;;18.00;70.50;;;;;;2439785;53;20934;-76
2022/10/22 03:01:53;;;;;;;0.20;0.00;;;17.90;70.40;;;;;;2340545;53;20962;-77
2022/10/22 03:04:19;;;;;;;0.30;0.20;;;17.90;70.40;;;;;;2380668;53;20910;-77
2022/10/22 03:06:47;;;;;;;0.08;0.08;;;18.00;70.60;;;;;;2339422;54;21017;-78
2022/10/22 03:09:14;;;;;;;1.80;0.20;;;17.90;70.50;;;;;;2360434;53;20989;-77
2022/10/22 03:11:41;;;;;;;0.43;0.20;;;17.90;70.50;;;;;;2345955;53;21005;-79
2022/10/22 03:14:07;;;;;;;0.60;0.13;;;18.00;70.60;;;;;;2339260;53;20933;-77
2022/10/22 03:16:34;;;;;;;0.70;0.25;;;18.00;70.60;;;;;;2339609;54;20960;-77
2022/10/22 03:19:02;;;;;;;1.10;0.25;;;17.90;70.50;;;;;;2361676;53;20981;-76
2022/10/22 03:21:54;;;;;;;0.60;0.30;;;18.00;70.50;;;;;;2419308;53;20997;-79
2022/10/22 03:24:26;;;;;;;0.15;0.10;;;18.00;70.60;;;;;;2380717;53;20986;-77
2022/10/22 03:26:53;;;;;;;0.60;0.20;;;18.00;70.50;;;;;;2532543;53;21431;-78
2022/10/22 03:29:21;;;;;;;0.52;0.10;;;18.00;70.50;;;;;;2339730;54;20984;-77
2022/10/22 03:31:47;;;;;;;0.10;0.10;;;18.00;70.50;;;;;;2341816;53;21300;-76
2022/10/22 03:34:15;;;;;;;0.75;0.20;;;18.00;70.50;;;;;;2347924;53;21006;-77
2022/10/22 03:36:41;;;;;;;1.75;0.20;;;18.00;70.50;;;;;;2410364;53;20946;-78
2022/10/22 03:39:07;;;;;;;0.10;0.10;;;18.00;70.50;;;;;;2475084;53;20926;-79
2022/10/22 03:41:33;;;;;;;0.40;0.17;;;18.00;70.40;;;;;;2338427;54;21037;-77
2022/10/22 03:44:00;;;;;;;1.08;0.30;;;18.00;70.40;;;;;;2338285;53;20989;-77
2022/10/22 03:46:27;;;;;;;3.53;0.55;;;18.00;70.40;;;;;;2340695;53;20958;-76
2022/10/22 03:48:53;;;;;;;1.20;0.28;;;18.00;70.40;;;;;;2397746;53;20966;-77
2022/10/22 03:51:20;;;;;;;0.50;0.20;;;18.00;70.40;;;;;;2337347;53;21045;-76
2022/10/22 03:53:46;;;;;;;0.22;0.10;;;18.00;70.40;;;;;;2353065;53;21526;-77
2022/10/22 03:56:15;;;;;;;1.30;0.32;;;18.00;70.40;;;;;;2365741;53;20965;-77
2022/10/22 03:58:42;;;;;;;0.80;0.30;;;18.00;70.40;;;;;;2339404;54;20933;-78
2022/10/22 04:01:09;;;;;;;0.73;0.22;;;18.00;70.40;;;;;;2377940;53;20946;-77
2022/10/22 04:03:35;;;;;;;0.35;0.20;;;17.90;70.30;;;;;;2408081;53;21022;-78
2022/10/22 04:06:07;;;;;;;1.42;0.20;;;18.00;71.00;;;;;;2442345;53;21002;-77
2022/10/22 04:08:34;;;;;;;0.93;0.50;;;17.90;70.10;;;;;;2430133;53;20990;-77
2022/10/22 04:11:04;;;;;;;1.05;0.47;;;17.90;70.00;;;;;;2411985;53;20982;-77
2022/10/22 04:13:30;;;;;;;2.95;0.30;;;17.90;70.10;;;;;;2393574;53;21491;-77
2022/10/22 04:16:23;;;;;;;0.17;0.17;;;17.90;70.10;;;;;;2345307;53;20993;-78
2022/10/22 04:18:49;;;;;;;0.50;0.30;;;17.90;70.10;;;;;;2339678;54;20946;-77
2022/10/22 04:21:18;;;;;;;0.30;0.20;;;17.90;70.10;;;;;;2511726;53;20958;-77
2022/10/22 04:23:46;;;;;;;0.08;0.08;;;17.90;70.20;;;;;;2411927;53;21443;-78
2022/10/22 04:26:12;;;;;;;0.28;0.17;;;17.90;70.30;;;;;;2415357;53;21014;-78
2022/10/22 04:28:39;;;;;;;0.17;0.10;;;17.90;70.30;;;;;;2387602;53;21490;-77
2022/10/22 04:31:09;;;;;;;0.10;0.10;;;17.90;70.30;;;;;;2338686;54;20943;-79
2022/10/22 04:33:35;;;;;;;0.52;0.22;;;17.90;70.30;;;;;;2378901;53;21450;-76
2022/10/22 04:36:17;;;;;;;1.77;0.20;;;17.90;70.30;;;;;;2339232;54;20946;-78
2022/10/22 04:38:46;;;;;;;0.80;0.25;;;17.80;70.20;;;;;;2374866;53;20946;-78
2022/10/22 04:41:17;;;;;;;0.68;0.35;;;17.90;70.30;;;;;;2419727;53;20949;-77
2022/10/22 04:43:43;;;;;;;0.73;0.30;;;17.80;70.10;;;;;;2339382;54;20969;-77
2022/10/22 04:46:10;;;;;;;0.98;0.40;;;17.80;70.20;;;;;;2371203;53;21074;-78
2022/10/22 04:48:37;;;;;;;1.67;0.40;;;17.80;70.10;;;;;;2338846;53;20997;-77
2022/10/22 04:51:05;;;;;;;1.10;0.32;;;17.80;70.20;;;;;;2339098;54;21089;-77
2022/10/22 04:53:34;;;;;;;3.03;0.40;;;17.80;70.30;;;;;;2541547;53;20930;-78
2022/10/22 04:56:15;;;;;;;0.35;0.30;;;17.80;70.30;;;;;;2385753;53;20987;-78
2022/10/22 04:58:42;;;;;;;1.37;0.50;;;17.80;70.30;;;;;;2347974;53;20953;-77
2022/10/22 05:01:13;;;;;;;2.25;0.60;;;17.80;70.30;;;;;;2377409;53;20945;-76
2022/10/22 05:03:40;;;;;;;0.90;0.40;;;17.80;70.30;;;;;;2339875;53;21023;-77
2022/10/22 05:06:09;;;;;;;0.82;0.40;;;17.70;70.20;;;;;;2337786;53;21455;-77
2022/10/22 05:08:37;;;;;;;3.22;0.40;;;17.80;70.30;;;;;;2329447;54;21804;-76
2022/10/22 05:11:40;;;;;;;1.12;0.30;;;17.70;70.20;;;;;;2343684;53;21721;-79
2022/10/22 05:14:06;;;;;;;;;;;17.70;70.30;;;;;;2342060;53;20938;-77
2022/10/22 05:16:33;;;;;;;0.35;0.20;;;17.70;70.20;;;;;;2564481;53;20133;-77
2022/10/22 05:19:02;;;;;;;2.37;0.30;;;17.70;70.10;;;;;;2492835;53;21010;-78
2022/10/22 05:21:28;;;;;;;0.37;0.20;;;17.70;70.20;;;;;;2354794;53;21864;-79
2022/10/22 05:24:00;;;;;;;0.17;0.17;;;17.70;70.20;;;;;;2361692;53;20938;-79
2022/10/22 05:26:30;;;;;;;0.60;0.20;;;17.70;70.30;;;;;;2460208;53;20947;-77
2022/10/22 05:28:56;;;;;;;0.50;0.15;;;17.70;70.30;;;;;;2410242;53;20990;-77
2022/10/22 05:31:27;;;;;;;0.35;0.20;;;17.70;70.30;;;;;;2361124;53;21002;-77
2022/10/22 05:33:54;;;;;;;0.40;0.15;;;17.70;70.30;;;;;;2585011;53;20918;-77
2022/10/22 05:36:21;;;;;;;0.25;0.20;;;17.70;70.30;;;;;;2528217;53;20933;-77
2022/10/22 05:38:48;;;;;;;0.93;0.20;;;17.60;70.30;;;;;;2338685;53;20958;-77
2022/10/22 05:41:16;;;;;;;0.35;0.17;;;17.60;70.30;;;;;;2479645;53;20958;-77
2022/10/22 05:43:42;;;;;;;0.82;0.30;;;17.60;70.30;;;;;;2339197;54;20958;-77
2022/10/22 05:46:10;;;;;;;0.65;0.20;;;17.60;70.30;;;;;;2381162;53;20967;-78
2022/10/22 05:48:37;;;;;;;0.43;0.20;;;17.60;70.40;;;;;;2346151;53;21001;-77
2022/10/22 05:51:05;;;;;;;0.37;0.20;;;17.60;70.40;;;;;;2338265;53;21036;-77
2022/10/22 05:53:32;;;;;;;0.35;0.22;;;17.60;70.40;;;;;;2407738;53;20962;-78
2022/10/22 05:56:02;;;;;;;0.43;0.20;;;17.60;70.40;;;;;;2338885;53;20988;-76
2022/10/22 05:58:34;;;;;;;0.85;0.28;;;17.60;70.40;;;;;;2344632;53;20942;-77
2022/10/22 06:01:05;;;;;;;0.75;0.20;;;17.60;70.30;;;;;;2367054;53;20975;-78
2022/10/22 06:03:31;;;;;;;0.43;0.20;;;17.60;70.30;;;;;;2535660;53;20962;-77
2022/10/22 06:06:02;;;;;;;1.25;0.20;;;17.60;70.20;;;;;;2367543;53;21013;-78
2022/10/22 06:08:28;;;;;;;0.82;0.30;;;17.60;70.10;;;;;;2338908;53;21671;-77
2022/10/22 06:10:55;;;;;;;0.85;0.32;;;17.60;70.00;;;;;;2407888;53;20950;-79
2022/10/22 06:13:21;;;;;;;1.40;0.47;;;17.60;70.00;;;;;;2449035;53;20986;-77
2022/10/22 06:15:52;;;;;;;2.50;0.52;;;17.50;69.80;;;;;;2491213;53;21037;-77
2022/10/22 06:18:21;;;;;;;0.88;0.47;;;17.50;69.90;;;;;;2321000;53;21393;-77
2022/10/22 06:20:48;;;;;;;2.37;0.40;;;17.50;69.90;;;;;;2551165;53;20944;-77
2022/10/22 06:23:14;;;;;;;0.70;0.40;;;17.50;69.90;;;;;;2342855;54;21094;-77
2022/10/22 06:25:41;;;;;;;0.62;0.30;;;17.50;70.00;;;;;;2343880;54;21049;-77
2022/10/22 06:28:08;;;;;;;0.62;0.25;;;17.40;69.90;;;;;;2341561;54;20980;-77
2022/10/22 06:30:37;;;;;;;1.27;0.20;;;17.50;70.10;;;;;;2346658;54;20961;-77
2022/10/22 06:33:04;;;;;;;1.52;0.60;;;17.50;70.10;;;;;;2339133;53;20932;-77
2022/10/22 06:35:32;;;;;;;4.20;1.60;;;17.40;70.10;;;;;;2462129;53;20961;-78
2022/10/22 06:38:01;;;;;;;3.53;1.77;;;17.40;70.20;;;;;;2397862;53;21261;-78
2022/10/22 06:40:28;;;;;;;4.68;2.50;;;17.40;70.20;;;;;;2463664;53;20985;-80
2022/10/22 06:43:01;;;;;;;3.90;1.85;;;17.40;70.30;;;;;;2564177;52;21454;-79
2022/10/22 06:45:27;;;;;;;5.62;2.83;;;17.40;70.30;;;;;;2319478;54;21010;-78
2022/10/22 06:47:54;;;;;;;7.53;3.12;;;17.40;70.40;;;;;;2364997;54;20945;-77
2022/10/22 06:50:21;;;;;;;4.85;2.37;;;17.40;70.50;;;;;;2316958;54;21045;-77
2022/10/22 06:52:49;;;;;;;6.60;3.03;;;17.40;70.60;;;;;;2326518;54;21021;-77
2022/10/22 06:55:16;;;;;;;8.35;4.10;;;17.40;70.60;;;;;;2323113;54;20989;-77
2022/10/22 06:57:42;;;;;;;7.97;3.58;;;17.40;70.60;;;;;;2322526;54;20925;-78
2022/10/22 07:00:10;;;;;;;6.10;2.30;;;17.40;70.70;;;;;;2317307;54;21020;-77
2022/10/22 07:02:37;;;;;;;5.10;2.00;;;17.40;70.70;;;;;;2322173;54;20923;-77
2022/10/22 07:05:05;;;;;;;4.57;1.80;;;17.40;70.80;;;;;;2314101;54;20949;-77
2022/10/22 07:07:33;;;;;;;3.45;1.10;;;17.50;70.90;;;;;;2317118;54;20944;-78
2022/10/22 07:10:02;;;;;;;4.07;1.10;;;17.40;70.90;;;;;;2328256;54;20963;-77
2022/10/22 07:12:30;;;;;;;3.37;1.35;;;17.50;71.00;;;;;;2357744;53;20949;-79
2022/10/22 07:14:57;;;;;;;2.80;1.23;;;17.50;71.00;;;;;;2338212;53;20915;-78
2022/10/22 07:17:23;;;;;;;5.53;1.20;;;17.50;71.00;;;;;;2504234;53;20938;-77
2022/10/22 07:19:52;;;;;;;2.30;1.00;;;17.50;71.00;;;;;;2339313;53;21061;-76
2022/10/22 07:22:19;;;;;;;2.95;1.02;;;17.50;71.00;;;;;;2359365;53;21848;-78
2022/10/22 07:24:49;;;;;;;2.95;1.00;;;17.60;71.10;;;;;;2338749;53;20948;-78
2022/10/22 07:27:16;;;;;;;3.08;1.25;;;17.60;71.20;;;;;;2342191;53;20978;-77
2022/10/22 07:29:42;;;;;;;3.92;1.80;;;17.60;71.10;;;;;;2332406;53;21086;-77
2022/10/22 07:32:08;;;;;;;7.62;3.20;;;17.70;71.30;;;;;;2345327;53;21362;-78
2022/10/22 07:34:35;;;;;;;5.82;2.47;;;17.70;71.40;;;;;;2312104;53;20940;-77
2022/10/22 07:37:01;;;;;;;4.03;1.70;;;17.70;72.10;;;;;;2339238;53;20997;-78
2022/10/22 07:39:28;;;;;;;3.55;1.40;;;17.70;71.40;;;;;;2369832;53;21023;-79
2022/10/22 07:41:54;;;;;;;4.32;1.00;;;17.80;71.50;;;;;;2340842;53;21053;-77
2022/10/22 07:44:20;;;;;;;2.17;0.90;;;17.80;71.50;;;;;;2343125;53;20942;-77
2022/10/22 07:46:47;;;;;;;1.40;0.70;;;17.80;71.50;;;;;;2341638;53;20981;-76
2022/10/22 07:49:16;;;;;;;2.47;0.70;;;17.90;71.60;;;;;;2342877;53;21814;-77
2022/10/22 07:51:43;;;;;;;1.10;0.60;;;17.90;71.70;;;;;;2339404;54;21510;-77
2022/10/22 07:54:09;;;;;;;1.00;0.40;;;17.90;71.70;;;;;;2390157;53;20950;-77
2022/10/22 07:56:35;;;;;;;1.02;0.37;;;18.00;71.80;;;;;;2583793;53;20958;-77
2022/10/22 07:59:02;;;;;;;0.75;0.43;;;18.00;71.80;;;;;;2339108;54;21666;-77
2022/10/22 08:01:29;;;;;;;1.23;0.50;;;18.10;71.90;;;;;;2339447;54;21438;-77
2022/10/22 08:03:56;;;;;;;0.70;0.40;;;18.10;71.90;;;;;;2414980;53;20969;-75
2022/10/22 08:06:23;;;;;;;1.67;0.68;;;18.10;71.80;;;;;;2339550;54;21750;-76
2022/10/22 08:08:49;;;;;;;1.00;0.40;;;18.10;71.80;;;;;;2339298;54;20926;-75
2022/10/22 08:11:16;;;;;;;1.17;0.50;;;18.20;71.90;;;;;;2584651;53;20974;-75
2022/10/22 08:13:42;;;;;;;0.90;0.40;;;18.20;71.80;;;;;;2358496;53;21013;-76
2022/10/22 08:16:10;;;;;;;3.10;0.50;;;18.30;71.90;;;;;;2493267;53;21382;-75
2022/10/22 08:18:38;;;;;;;1.17;0.50;;;18.30;71.90;;;;;;2397595;53;20982;-76
2022/10/22 08:21:05;;;;;;;1.52;0.50;;;18.40;72.00;;;;;;2554869;53;21041;-77
2022/10/22 08:23:34;;;;;;;0.50;0.28;;;18.40;72.10;;;;;;2339162;53;21018;-76
2022/10/22 08:26:01;;;;;;;0.77;0.40;;;18.40;72.10;;;;;;2583837;53;21085;-76
2022/10/22 08:28:30;;;;;;;1.02;0.40;;;18.50;72.10;;;;;;2339441;54;21013;-77
2022/10/22 08:30:56;;;;;;;1.00;0.30;;;18.50;72.20;;;;;;2343478;53;21029;-76
2022/10/22 08:33:22;;;;;;;0.93;0.45;;;18.50;72.10;;;;;;2584990;53;20994;-75
2022/10/22 08:35:52;;;;;;;2.45;0.50;;;18.60;72.30;;;;;;2339917;53;21029;-75
2022/10/22 08:38:19;;;;;;;1.00;0.40;;;18.60;72.30;;;;;;2340107;54;21456;-74
2022/10/22 08:40:55;;;;;;;1.40;0.60;;;18.60;72.30;;;;;;2556129;53;21407;-75
2022/10/22 08:43:46;;;;;;;1.00;0.40;;;18.70;72.40;;;;;;2484290;53;20959;-74
2022/10/22 08:48:41;;;;;;;1.17;0.43;;;18.80;72.60;;;;;;2558508;53;21029;-75
2022/10/22 08:51:10;;;;;;;;;;;18.80;72.60;;;;;;2342053;54;20970;-75
2022/10/22 08:54:04;;;;;;;1.70;0.40;;;18.90;72.40;;;;;;2570810;53;20124;-76
2022/10/22 08:56:31;;;;;;;2.42;0.95;;;19.00;72.50;;;;;;2339276;53;20986;-76
2022/10/22 08:59:00;;;;;;;2.15;0.60;;;19.00;72.60;;;;;;2396243;53;20938;-77
2022/10/22 09:01:45;;;;;;;1.02;0.30;;;19.10;72.90;;;;;;2338961;53;21017;-76
2022/10/22 09:06:18;;;;;;;1.45;0.35;;;19.10;73.10;;;;;;2342989;53;20962;-76
2022/10/22 09:08:45;;;;;;;0.52;0.28;;;19.30;73.10;;;;;;2355922;53;20990;-77
2022/10/22 09:11:21;;;;;;;0.90;0.32;;;19.30;73.00;;;;;;2487637;53;20993;-77
2022/10/22 09:13:47;;;;;;;0.47;0.30;;;19.40;73.20;;;;;;2400620;53;20941;-76
2022/10/22 09:16:16;;;;;;;2.42;0.45;;;19.50;73.20;;;;;;2345681;53;20942;-76
2022/10/22 09:21:51;;;;;;;1.67;0.50;;;19.50;73.10;;;;;;2584318;53;20939;-76
2022/10/22 09:26:13;;;;;;;1.20;0.47;;;19.70;72.90;;;;;;2558492;53;21809;-74
2022/10/22 09:28:40;;;;;;;1.98;0.40;;;19.80;73.00;;;;;;2440179;53;20938;-75
2022/10/22 09:31:11;;;;;;;1.05;0.50;;;19.80;72.90;;;;;;2339019;54;21030;-75
2022/10/22 09:33:37;;;;;;;2.30;0.70;;;19.90;73.10;;;;;;2341303;53;20933;-76
2022/10/22 09:36:06;;;;;;;4.80;0.52;;;20.00;73.20;;;;;;2338816;54;20931;-73
2022/10/22 09:38:38;;;;;;;1.60;0.65;;;20.00;73.30;;;;;;2342907;53;20927;-75
2022/10/22 09:41:04;;;;;;;2.10;0.70;;;20.10;73.30;;;;;;2583024;53;21510;-74
2022/10/22 09:43:35;;;;;;;1.55;0.60;;;20.10;73.20;;;;;;2338752;54;20966;-75
2022/10/22 09:46:03;;;;;;;1.75;0.60;;;20.20;73.20;;;;;;2460163;53;21442;-75
2022/10/22 09:48:39;;;;;;;2.28;0.90;;;20.30;73.30;;;;;;2319322;54;20938;-74
2022/10/22 09:51:26;;;;;;;1.83;0.60;;;20.30;73.20;;;;;;2338783;54;21450;-76
2022/10/22 09:54:00;;;;;;;2.85;0.50;;;20.40;73.10;;;;;;2338963;54;20977;-75
2022/10/22 09:56:35;;;;;;;3.03;0.80;;;20.40;73.10;;;;;;2448273;53;21018;-76
2022/10/22 09:59:01;;;;;;;2.20;0.70;;;20.50;73.20;;;;;;2391380;53;21089;-75
2022/10/22 10:01:30;;;;;;;1.77;0.62;;;20.60;73.90;;;;;;2358995;53;21081;-75
2022/10/22 10:04:23;;;;;;;1.90;0.70;;;20.60;73.20;;;;;;2340465;53;21014;-77
2022/10/22 10:06:53;;;;;;;1.98;0.70;;;20.70;73.30;;;;;;2367867;53;20939;-78
2022/10/22 10:09:23;;;;;;;2.47;0.57;;;20.70;73.20;;;;;;2338143;53;20930;-76
2022/10/22 10:12:16;;;;;;;1.60;0.65;;;20.80;73.10;;;;;;2338951;53;20978;-77
2022/10/22 10:15:20;;;;;;;2.40;0.65;;;20.80;72.90;;;;;;2351830;53;21005;-78
2022/10/22 10:18:03;;;;;;;2.12;0.70;;;20.90;72.80;;;;;;2338742;54;21824;-76
2022/10/22 10:20:43;;;;;;;2.58;0.85;;;21.00;72.70;;;;;;2488216;53;21469;-76
2022/10/22 10:26:56;;;;;;;1.92;0.73;;;21.00;72.80;;;;;;2339102;54;21795;-76
2022/10/22 10:31:04;;;;;;;2.50;0.70;;;21.10;72.70;;;;;;2339062;54;20956;-77
2022/10/22 10:35:03;;;;;;;2.20;0.80;;;21.20;72.20;;;;;;2339879;54;20962;-76
2022/10/22 10:39:06;;;;;;;3.17;1.02;;;21.30;71.90;;;;;;2375834;53;20986;-76
2022/10/22 10:42:54;;;;;;;2.28;0.57;;;21.30;72.00;;;;;;2571518;53;20935;-76
2022/10/22 10:45:44;;;;;;;1.17;0.40;;;21.40;71.80;;;;;;2342034;54;20982;-76
2022/10/22 10:48:39;;;;;;;2.28;0.70;;;21.40;72.70;;;;;;2339537;54;21846;-76
2022/10/22 10:52:51;;;;;;;1.05;0.50;;;21.50;71.70;;;;;;2509454;53;21517;-77
2022/10/22 10:55:53;;;;;;;2.03;0.60;;;21.40;71.80;;;;;;2556921;53;21075;-75
2022/10/22 10:58:47;;;;;;;2.33;0.60;;;21.50;71.80;;;;;;2393118;53;20962;-76
2022/10/22 11:01:55;;;;;;;1.17;0.57;;;21.60;71.60;;;;;;2410050;53;21025;-77
2022/10/22 11:05:44;;;;;;;1.62;0.68;;;21.60;71.50;;;;;;2437208;53;20974;-76
2022/10/22 11:08:24;;;;;;;2.42;0.65;;;21.60;71.30;;;;;;2338615;53;20977;-76
2022/10/22 11:11:37;;;;;;;1.95;0.70;;;21.70;71.50;;;;;;2339480;54;20989;-76
2022/10/22 11:16:45;;;;;;;1.85;0.55;;;21.70;71.30;;;;;;2339399;54;20942;-77
2022/10/22 11:20:07;;;;;;;1.70;0.57;;;21.70;71.30;;;;;;2339795;53;20965;-76
2022/10/22 11:22:38;;;;;;;2.70;0.65;;;21.80;71.00;;;;;;2578891;53;21420;-77
2022/10/22 11:25:24;;;;;;;2.43;0.90;;;21.80;71.00;;;;;;2336429;53;20985;-76
2022/10/22 11:28:04;;;;;;;0.85;0.50;;;21.80;70.40;;;;;;2500267;53;22022;-76
2022/10/22 11:30:35;;;;;;;1.52;0.50;;;21.80;70.40;;;;;;2339417;54;20986;-78
2022/10/22 11:33:05;;;;;;;2.30;0.70;;;21.80;70.80;;;;;;2339560;54;20997;-76
2022/10/22 11:35:36;;;;;;;1.67;0.62;;;21.80;70.80;;;;;;2383845;53;21038;-77
2022/10/22 11:38:03;;;;;;;1.67;0.60;;;21.80;70.70;;;;;;2488900;53;20983;-76
2022/10/22 11:40:37;;;;;;;2.60;0.90;;;21.80;70.70;;;;;;2332768;53;20986;-78
2022/10/22 11:43:07;;;;;;;2.25;0.73;;;21.90;70.50;;;;;;2339245;54;21558;-78
2022/10/22 11:45:44;;;;;;;2.08;0.70;;;21.80;70.70;;;;;;2342241;54;20935;-77
2022/10/22 11:48:25;;;;;;;1.65;0.60;;;21.90;70.20;;;;;;2338406;53;21009;-77
2022/10/22 11:50:59;;;;;;;1.83;0.50;;;21.90;70.10;;;;;;2403149;53;21009;-76
2022/10/22 11:53:36;;;;;;;3.47;0.73;;;21.90;70.20;;;;;;2554295;53;21565;-77
2022/10/22 11:56:20;;;;;;;2.60;0.90;;;22.00;70.20;;;;;;2583876;53;20918;-77
2022/10/22 11:58:49;;;;;;;3.85;0.65;;;22.00;70.40;;;;;;2339169;54;20966;-77
2022/10/22 12:02:01;;;;;;;1.50;0.57;;;22.00;70.30;;;;;;2337996;53;20962;-77
2022/10/22 12:04:40;;;;;;;2.28;0.70;;;22.00;69.80;;;;;;2343280;53;21131;-76
2022/10/22 12:07:32;;;;;;;2.33;0.68;;;22.00;69.60;;;;;;2340997;53;21526;-76
2022/10/22 12:09:58;;;;;;;2.10;0.60;;;22.10;69.60;;;;;;2338445;53;20950;-77
2022/10/22 12:12:27;;;;;;;2.75;0.55;;;22.10;70.00;;;;;;2376979;53;20942;-78
2022/10/22 12:14:57;;;;;;;1.52;0.60;;;22.10;70.00;;;;;;2365890;53;21503;-78
2022/10/22 12:17:23;;;;;;;2.33;0.60;;;22.10;69.90;;;;;;2338894;53;21009;-76
2022/10/22 12:19:56;;;;;;;2.90;0.75;;;22.10;69.90;;;;;;2337454;53;21003;-77
2022/10/22 12:22:28;;;;;;;1.62;0.60;;;22.20;69.90;;;;;;2344140;53;20953;-76
2022/10/22 12:24:58;;;;;;;1.50;0.60;;;22.20;69.80;;;;;;2340216;54;21118;-79
2022/10/22 12:27:26;;;;;;;1.87;0.57;;;22.20;69.90;;;;;;2508071;53;21541;-77
2022/10/22 12:29:56;;;;;;;1.58;0.60;;;22.20;69.90;;;;;;2355397;53;21003;-80
2022/10/22 12:32:25;;;;;;;2.50;0.52;;;22.20;69.60;;;;;;2370297;53;20914;-79
2022/10/22 12:34:51;;;;;;;2.20;0.70;;;22.20;69.70;;;;;;2463626;53;20946;-78
2022/10/22 12:37:18;;;;;;;1.98;0.60;;;22.30;69.60;;;;;;2350457;53;21066;-79
2022/10/22 12:39:47;;;;;;;2.58;0.60;;;22.30;69.40;;;;;;2364818;53;21764;-81
2022/10/22 12:42:17;;;;;;;2.37;0.70;;;22.30;69.40;;;;;;2342713;53;21002;-79
2022/10/22 12:44:43;;;;;;;2.60;0.77;;;22.30;69.50;;;;;;2337208;53;20966;-78
2022/10/22 12:47:16;;;;;;;2.10;0.55;;;22.30;69.40;;;;;;2341678;53;21362;-79
2022/10/22 12:49:46;;;;;;;1.33;0.50;;;22.40;69.60;;;;;;2384636;53;21058;-80
2022/10/22 12:52:19;;;;;;;1.75;0.60;;;22.40;69.80;;;;;;2338985;53;20962;-79
2022/10/22 12:54:46;;;;;;;1.52;0.60;;;22.40;69.50;;;;;;2346817;53;20970;-79
2022/10/22 12:57:14;;;;;;;1.65;0.52;;;22.50;69.60;;;;;;2417916;53;21691;-77
2022/10/22 12:59:48;;;;;;;2.12;0.80;;;22.50;70.40;;;;;;2344614;53;21806;-79
2022/10/22 13:02:23;;;;;;;2.70;0.77;;;22.50;69.60;;;;;;2390181;53;21514;-81
2022/10/22 13:05:26;;;;;;;1.90;0.50;;;22.60;69.40;;;;;;2383524;53;21459;-76
2022/10/22 13:07:54;;;;;;;2.45;0.65;;;22.60;69.20;;;;;;2338931;53;20938;-76
2022/10/22 13:10:25;;;;;;;1.65;0.60;;;22.60;69.30;;;;;;2516787;53;20970;-77
2022/10/22 13:12:56;;;;;;;2.37;0.73;;;22.70;69.80;;;;;;2338977;53;21010;-76
2022/10/22 13:15:37;;;;;;;1.23;0.57;;;22.70;69.00;;;;;;2340555;53;20928;-77
2022/10/22 13:18:22;;;;;;;1.55;0.45;;;22.70;68.40;;;;;;2542259;53;20947;-77
2022/10/22 13:21:01;;;;;;;1.10;0.50;;;22.80;68.40;;;;;;2331600;53;20930;-78
2022/10/22 13:23:29;;;;;;;1.33;0.50;;;22.80;68.90;;;;;;2338636;54;21018;-76
2022/10/22 13:26:17;;;;;;;1.35;0.50;;;22.80;68.70;;;;;;2341737;53;20983;-76
2022/10/22 13:28:51;;;;;;;2.35;0.80;;;22.80;68.40;;;;;;2321852;53;20941;-76
2022/10/22 13:31:22;;;;;;;2.92;0.80;;;22.80;68.20;;;;;;2345529;53;21114;-79
2022/10/22 13:33:55;;;;;;;3.95;0.50;;;22.90;68.70;;;;;;2327926;53;20991;-76
2022/10/22 13:36:24;;;;;;;2.10;0.70;;;22.90;68.70;;;;;;2345740;53;21108;-76
2022/10/22 13:38:52;;;;;;;2.53;0.60;;;22.90;68.70;;;;;;2331303;53;21035;-76
2022/10/22 13:41:20;;;;;;;3.47;1.05;;;22.90;68.50;;;;;;2353793;53;20957;-78
2022/10/22 13:43:47;;;;;;;2.05;0.50;;;22.90;68.60;;;;;;2379374;53;20964;-77
2022/10/22 13:46:13;;;;;;;2.40;0.47;;;23.00;69.00;;;;;;2332359;53;21059;-77
2022/10/22 13:48:39;;;;;;;2.03;0.50;;;23.00;69.00;;;;;;2339697;53;20990;-79
2022/10/22 13:51:13;;;;;;;1.62;0.50;;;23.00;68.80;;;;;;2489420;53;20979;-76
2022/10/22 13:53:39;;;;;;;1.60;0.47;;;23.10;68.60;;;;;;2497797;53;21062;-76
2022/10/22 13:56:14;;;;;;;3.85;0.70;;;23.10;69.40;;;;;;2339737;53;21486;-76
2022/10/22 13:58:42;;;;;;;2.60;0.70;;;23.10;68.90;;;;;;2339294;53;21021;-77
2022/10/22 14:01:25;;;;;;;3.55;0.65;;;23.10;69.00;;;;;;2414793;53;21029;-76
2022/10/22 14:03:56;;;;;;;2.55;0.60;;;23.20;68.50;;;;;;2345946;53;20931;-76